createdAt,value
2022-12-15T00:00:35.650Z,19.25
2022-12-15T00:03:26.074Z,23.73
2022-12-15T00:06:11.887Z,15.30
2022-12-15T00:08:59.786Z,14.18
2022-12-15T00:11:45.866Z,12.75
2022-12-15T00:14:31.383Z,24.58
2022-12-15T00:17:17.259Z,21.08
2022-12-15T00:20:03.212Z,18.20
2022-12-15T00:22:48.990Z,19.35
2022-12-15T00:25:36.064Z,19.63
2022-12-15T00:28:21.835Z,21.85
2022-12-15T00:31:08.138Z,21.10
2022-12-15T00:33:54.007Z,21.70
2022-12-15T00:36:40.026Z,27.95
2022-12-15T00:39:08.541Z,18.48
2022-12-15T00:41:38.251Z,23.20
2022-12-15T00:44:06.895Z,18.83
2022-12-15T00:46:53.516Z,27.15
2022-12-15T00:49:39.840Z,17.00
2022-12-15T00:52:25.643Z,21.45
2022-12-15T00:55:11.624Z,18.60
2022-12-15T00:57:59.315Z,21.23
2022-12-15T01:00:45.272Z,19.23
2022-12-15T01:03:34.851Z,21.48
2022-12-15T01:06:25.884Z,25.08
2022-12-15T01:09:11.706Z,25.42
2022-12-15T01:11:57.722Z,19.92
2022-12-15T01:14:45.223Z,23.38
2022-12-15T01:17:31.739Z,17.35
2022-12-15T01:20:17.596Z,28.95
2022-12-15T01:22:47.577Z,18.52
2022-12-15T01:25:17.870Z,19.27
2022-12-15T01:27:47.406Z,22.58
2022-12-15T01:30:21.460Z,20.02
2022-12-15T01:32:50.023Z,24.10
2022-12-15T01:35:19.813Z,22.20
2022-12-15T01:37:49.859Z,24.00
2022-12-15T01:40:41.508Z,32.28
2022-12-15T01:43:16.158Z,22.85
2022-12-15T01:45:56.749Z,25.83
2022-12-15T01:48:48.623Z,21.02
2022-12-15T01:51:23.764Z,19.25
2022-12-15T01:54:01.171Z,21.42
2022-12-15T01:56:37.255Z,24.77
2022-12-15T01:59:10.297Z,26.90
2022-12-15T02:01:40.406Z,22.20
2022-12-15T02:04:12.299Z,20.40
2022-12-15T02:06:41.126Z,29.05
2022-12-15T02:09:10.006Z,30.52
2022-12-15T02:11:57.469Z,23.85
2022-12-15T02:14:41.613Z,31.98
2022-12-15T02:17:23.738Z,39.15
2022-12-15T02:20:42.865Z,31.13
2022-12-15T02:24:10.805Z,28.60
2022-12-15T02:27:13.888Z,21.73
2022-12-15T02:30:16.839Z,26.73
2022-12-15T02:32:57.677Z,24.27
2022-12-15T02:35:33.352Z,31.30
2022-12-15T02:38:02.315Z,26.08
2022-12-15T02:40:30.810Z,20.63
2022-12-15T02:43:01.103Z,22.52
2022-12-15T02:45:37.544Z,25.80
2022-12-15T02:48:23.066Z,25.80
2022-12-15T02:51:12.644Z,24.13
2022-12-15T02:54:04.579Z,26.77
2022-12-15T02:56:40.705Z,19.70
2022-12-15T02:59:16.388Z,27.50
2022-12-15T03:01:55.141Z,33.95
2022-12-15T03:04:23.977Z,36.47
2022-12-15T03:07:00.891Z,27.10
2022-12-15T03:09:30.061Z,27.05
2022-12-15T03:11:58.908Z,31.35
2022-12-15T03:14:27.310Z,31.27
2022-12-15T03:16:58.425Z,29.30
2022-12-15T03:19:27.399Z,30.67
2022-12-15T03:21:55.885Z,32.88
2022-12-15T03:24:24.538Z,26.75
2022-12-15T03:26:53.317Z,24.83
2022-12-15T03:29:21.697Z,20.35
2022-12-15T03:31:50.366Z,29.33
2022-12-15T03:34:20.592Z,24.95
2022-12-15T03:36:49.248Z,25.25
2022-12-15T03:39:17.710Z,33.58
2022-12-15T03:41:46.239Z,32.50
2022-12-15T03:44:15.329Z,31.73
2022-12-15T03:46:43.586Z,25.42
2022-12-15T03:49:12.119Z,27.92
2022-12-15T03:51:41.891Z,27.23
2022-12-15T03:54:10.343Z,22.45
2022-12-15T03:56:38.786Z,25.33
2022-12-15T03:59:07.912Z,23.55
2022-12-15T04:01:38.189Z,28.38
2022-12-15T04:04:06.896Z,20.75
2022-12-15T04:06:35.583Z,28.38
2022-12-15T04:09:06.347Z,25.52
2022-12-15T04:11:34.757Z,23.60
2022-12-15T04:14:03.336Z,29.35
2022-12-15T04:16:32.034Z,31.85
2022-12-15T04:19:18.015Z,22.88
2022-12-15T04:21:46.444Z,31.98
2022-12-15T04:24:33.423Z,36.22
2022-12-15T04:27:19.083Z,27.30
2022-12-15T04:30:05.065Z,28.77
2022-12-15T04:32:50.645Z,30.65
2022-12-15T04:35:36.472Z,28.73
2022-12-15T04:38:22.246Z,24.80
2022-12-15T04:41:09.650Z,25.70
2022-12-15T04:43:55.595Z,27.80
2022-12-15T04:46:41.652Z,37.00
2022-12-15T04:49:27.832Z,26.92
2022-12-15T04:52:13.831Z,28.92
2022-12-15T04:54:59.964Z,20.63
2022-12-15T04:57:46.921Z,28.55
2022-12-15T05:00:33.320Z,30.77
2022-12-15T05:03:23.962Z,31.73
2022-12-15T05:06:09.773Z,21.70
2022-12-15T05:08:55.964Z,22.02
2022-12-15T05:11:42.330Z,28.08
2022-12-15T05:14:30.119Z,28.33
2022-12-15T05:17:16.289Z,29.10
2022-12-15T05:20:01.972Z,26.05
2022-12-15T05:22:48.020Z,24.10
2022-12-15T05:25:33.768Z,30.70
2022-12-15T05:28:19.365Z,36.63
2022-12-15T05:31:06.546Z,28.15
2022-12-15T05:33:34.988Z,32.42
2022-12-15T05:36:03.423Z,38.17
2022-12-15T05:38:31.894Z,30.55
2022-12-15T05:41:01.062Z,32.97
2022-12-15T05:43:30.844Z,34.10
2022-12-15T05:46:05.085Z,30.15
2022-12-15T05:48:33.469Z,25.08
2022-12-15T05:51:05.985Z,27.60
2022-12-15T05:53:35.029Z,36.03
2022-12-15T05:56:04.380Z,20.80
2022-12-15T05:58:33.093Z,26.67
2022-12-15T06:01:08.167Z,28.48
2022-12-15T06:03:36.594Z,29.52
2022-12-15T06:06:08.533Z,30.45
2022-12-15T06:08:40.250Z,32.03
2022-12-15T06:11:11.007Z,35.97
2022-12-15T06:13:39.506Z,28.95
2022-12-15T06:16:13.402Z,30.10
2022-12-15T06:18:44.363Z,30.98
2022-12-15T06:21:20.874Z,25.50
2022-12-15T06:23:49.503Z,35.03
2022-12-15T06:26:21.567Z,32.35
2022-12-15T06:28:50.795Z,37.35
2022-12-15T06:31:22.870Z,31.27
2022-12-15T06:33:57.509Z,37.17
2022-12-15T06:36:30.925Z,32.70
2022-12-15T06:39:01.295Z,32.85
2022-12-15T06:41:31.062Z,28.63
2022-12-15T06:44:00.594Z,48.05
2022-12-15T06:46:35.014Z,34.88
2022-12-15T06:49:03.670Z,38.17
2022-12-15T06:51:32.713Z,29.60
2022-12-15T06:54:01.759Z,26.98
2022-12-15T06:56:34.835Z,30.75
2022-12-15T06:59:05.080Z,41.83
2022-12-15T07:01:35.657Z,35.28
2022-12-15T07:04:05.788Z,36.00
2022-12-15T07:06:37.460Z,30.25
2022-12-15T07:09:10.444Z,31.48
2022-12-15T07:11:38.844Z,35.05
2022-12-15T07:14:07.255Z,35.78
2022-12-15T07:16:36.982Z,37.60
2022-12-15T07:19:05.410Z,32.80
2022-12-15T07:21:33.995Z,45.28
2022-12-15T07:24:02.990Z,37.20
2022-12-15T07:26:31.592Z,36.25
2022-12-15T07:28:59.892Z,35.22
2022-12-15T07:31:28.485Z,22.35
2022-12-15T07:33:58.837Z,36.35
2022-12-15T07:36:28.683Z,35.33
2022-12-15T07:39:01.509Z,33.92
2022-12-15T07:41:30.353Z,45.20
2022-12-15T07:43:59.808Z,32.78
2022-12-15T07:46:29.189Z,41.20
2022-12-15T07:48:59.138Z,38.80
2022-12-15T07:51:27.660Z,26.17
2022-12-15T07:53:56.210Z,35.63
2022-12-15T07:56:24.768Z,40.63
2022-12-15T07:58:53.221Z,30.85
2022-12-15T08:01:21.768Z,33.70
2022-12-15T08:03:50.737Z,25.13
2022-12-15T08:06:20.537Z,33.78
2022-12-15T08:08:49.960Z,35.03
2022-12-15T08:11:21.909Z,37.38
2022-12-15T08:14:10.385Z,33.03
2022-12-15T08:16:39.837Z,38.22
2022-12-15T08:19:11.850Z,35.42
2022-12-15T08:21:45.462Z,40.13
2022-12-15T08:24:14.828Z,47.38
2022-12-15T08:26:50.565Z,36.20
2022-12-15T08:32:08.153Z,40.88
2022-12-15T08:34:36.773Z,48.13
2022-12-15T08:37:06.506Z,42.40
2022-12-15T08:39:35.006Z,34.60
2022-12-15T08:42:03.371Z,41.72
2022-12-15T08:44:31.891Z,47.30
2022-12-15T08:47:00.361Z,37.45
2022-12-15T08:49:28.672Z,48.83
2022-12-15T08:51:57.038Z,53.90
2022-12-15T08:54:26.772Z,38.40
2022-12-15T08:56:55.222Z,38.67
2022-12-15T08:59:24.030Z,48.13
2022-12-15T09:01:52.658Z,45.95
2022-12-15T09:04:21.811Z,46.60
2022-12-15T09:06:50.672Z,37.97
2022-12-15T09:09:20.179Z,49.65
2022-12-15T09:11:50.298Z,45.70
2022-12-15T09:14:24.143Z,47.80
2022-12-15T09:25:46.586Z,44.03
2022-12-15T09:44:35.123Z,46.97
2022-12-15T09:47:14.327Z,58.08
2022-12-15T09:49:55.442Z,54.28
2022-12-15T09:55:28.765Z,48.92
2022-12-15T09:58:06.077Z,54.58
2022-12-15T10:00:52.222Z,50.53
2022-12-15T10:03:53.106Z,66.63
2022-12-15T10:09:20.649Z,60.70
2022-12-15T10:11:55.528Z,53.20
2022-12-15T10:14:33.388Z,60.03
2022-12-15T10:17:21.680Z,60.55
2022-12-15T10:19:56.707Z,66.03
2022-12-15T10:22:28.708Z,63.85
2022-12-15T10:25:09.802Z,61.85
2022-12-15T10:28:26.415Z,55.95
2022-12-15T10:31:02.381Z,56.75
2022-12-15T10:33:36.405Z,64.35
2022-12-15T10:36:11.937Z,57.20
2022-12-15T10:38:43.677Z,58.17
2022-12-15T10:41:15.827Z,55.92
2022-12-15T10:43:46.949Z,56.92
2022-12-15T10:46:19.920Z,49.33
2022-12-15T10:48:52.003Z,57.33
2022-12-15T10:51:26.008Z,56.10
2022-12-15T10:54:04.758Z,52.40
2022-12-15T10:56:35.206Z,56.53
2022-12-15T10:59:15.620Z,58.03
2022-12-15T11:01:44.309Z,49.67
2022-12-15T11:04:28.903Z,57.15
2022-12-15T11:07:02.717Z,59.30
2022-12-15T11:09:36.661Z,49.55
2022-12-15T11:12:36.512Z,49.13
2022-12-15T11:15:34.074Z,59.28
2022-12-15T11:18:11.346Z,49.60
2022-12-15T11:20:48.708Z,59.03
2022-12-15T11:23:25.872Z,58.30
2022-12-15T11:26:04.919Z,46.67
2022-12-15T11:28:45.119Z,48.10
2022-12-15T11:31:25.330Z,44.60
2022-12-15T11:33:54.718Z,43.03
2022-12-15T11:36:42.881Z,46.73
2022-12-15T11:39:24.080Z,47.23
2022-12-15T11:42:00.749Z,43.37
2022-12-15T11:44:35.078Z,39.93
2022-12-15T11:47:16.937Z,43.97
2022-12-15T11:50:10.737Z,48.43
2022-12-15T11:53:15.979Z,42.43
2022-12-15T11:55:58.054Z,45.83
2022-12-15T11:58:56.919Z,40.63
2022-12-15T12:02:00.758Z,37.90
2022-12-15T12:04:40.459Z,40.40
2022-12-15T12:07:19.179Z,33.57
2022-12-15T12:10:01.440Z,38.80
2022-12-15T12:12:38.075Z,33.30
2022-12-15T12:15:25.602Z,35.50
2022-12-15T12:17:59.314Z,35.57
2022-12-15T12:20:39.083Z,39.10
2022-12-15T12:23:18.359Z,30.47
2022-12-15T12:28:58.158Z,34.80
2022-12-15T12:31:36.367Z,35.47
2022-12-15T12:34:13.413Z,35.50
2022-12-15T12:36:43.401Z,32.13
2022-12-15T12:39:20.958Z,34.30
2022-12-15T12:42:01.975Z,38.00
2022-12-15T12:44:34.510Z,32.97
2022-12-15T12:47:15.130Z,33.93
2022-12-15T12:49:46.917Z,28.30
2022-12-15T12:52:26.780Z,29.37
2022-12-15T12:55:01.721Z,34.07
2022-12-15T12:57:42.877Z,37.90
2022-12-15T13:00:24.067Z,31.23
2022-12-15T13:03:19.079Z,34.30
2022-12-15T13:05:51.697Z,37.23
2022-12-15T13:08:51.932Z,34.30
2022-12-15T13:12:14.984Z,30.90
2022-12-15T13:14:51.629Z,31.60
2022-12-15T13:17:31.993Z,37.87
2022-12-15T13:20:27.678Z,29.93
2022-12-15T13:23:13.006Z,39.20
2022-12-15T13:25:50.352Z,31.00
2022-12-15T13:28:54.032Z,37.20
2022-12-15T13:31:41.787Z,34.80
2022-12-15T13:34:24.108Z,33.23
2022-12-15T13:37:01.281Z,41.20
2022-12-15T13:39:59.577Z,37.50
2022-12-15T13:42:41.542Z,32.20
2022-12-15T13:45:45.303Z,32.70
2022-12-15T13:48:33.757Z,34.47
2022-12-15T13:51:28.065Z,33.53
2022-12-15T13:54:03.087Z,35.07
2022-12-15T13:56:54.080Z,25.57
2022-12-15T13:59:35.209Z,29.93
2022-12-15T14:02:03.779Z,36.17
2022-12-15T14:04:33.769Z,32.37
2022-12-15T14:07:03.775Z,32.50
2022-12-15T14:09:35.543Z,33.07
2022-12-15T14:12:07.179Z,33.63
2022-12-15T14:14:38.801Z,41.87
2022-12-15T14:17:10.476Z,38.53
2022-12-15T14:19:42.656Z,32.27
2022-12-15T14:22:29.474Z,31.37
2022-12-15T14:25:05.177Z,31.43
2022-12-15T14:27:34.913Z,24.83
2022-12-15T14:30:24.353Z,30.90
2022-12-15T14:32:58.529Z,31.80
2022-12-15T14:35:32.711Z,33.90
2022-12-15T14:38:07.000Z,32.70
2022-12-15T14:40:38.117Z,35.17
2022-12-15T14:43:10.485Z,38.67
2022-12-15T14:45:39.385Z,32.80
2022-12-15T14:48:40.140Z,35.00
2022-12-15T14:51:04.424Z,31.17
2022-12-15T14:53:35.776Z,29.20
2022-12-15T14:56:30.561Z,37.70
2022-12-15T14:59:04.276Z,34.10
2022-12-15T15:01:40.341Z,37.37
2022-12-15T15:03:03.794Z,47.47
2022-12-15T15:03:11.640Z,32.40
2022-12-15T15:04:26.277Z,37.97
2022-12-15T15:06:58.860Z,37.20
2022-12-15T15:09:30.097Z,36.23
2022-12-15T15:12:03.792Z,36.77
2022-12-15T15:14:35.395Z,33.97
2022-12-15T15:17:10.355Z,40.03
2022-12-15T15:19:46.808Z,35.47
2022-12-15T15:22:32.195Z,43.77
2022-12-15T15:25:00.611Z,38.50
2022-12-15T15:27:37.086Z,44.37
2022-12-15T15:30:19.604Z,43.23
2022-12-15T15:32:54.114Z,36.03
2022-12-15T15:35:24.950Z,35.73
2022-12-15T15:37:57.018Z,47.50
2022-12-15T15:40:25.332Z,41.23
2022-12-15T15:42:53.584Z,37.47
2022-12-15T15:45:22.196Z,45.37
2022-12-15T15:47:56.176Z,45.07
2022-12-15T15:50:30.639Z,49.50
2022-12-15T15:53:00.416Z,43.60
2022-12-15T15:55:39.428Z,45.63
2022-12-15T15:58:12.804Z,42.87
2022-12-15T16:00:42.017Z,43.00
2022-12-15T16:03:10.859Z,42.40
2022-12-15T16:05:40.622Z,42.53
2022-12-15T16:08:17.295Z,44.97
2022-12-15T16:10:48.266Z,48.20
2022-12-15T16:13:25.667Z,52.63
2022-12-15T16:15:54.794Z,57.58
2022-12-15T16:18:23.146Z,51.35
2022-12-15T16:20:53.153Z,54.42
2022-12-15T16:23:27.584Z,52.50
2022-12-15T16:25:58.716Z,47.63
2022-12-15T16:28:31.033Z,56.08
2022-12-15T16:31:01.391Z,57.35
2022-12-15T16:33:29.868Z,50.15
2022-12-15T16:35:59.402Z,49.45
2022-12-15T16:38:31.899Z,49.13
2022-12-15T16:41:07.647Z,49.58
2022-12-15T16:43:40.369Z,52.03
2022-12-15T16:46:14.426Z,56.92
2022-12-15T16:48:43.377Z,55.55
2022-12-15T16:51:28.079Z,58.47
2022-12-15T16:53:57.852Z,54.35
2022-12-15T16:56:26.299Z,49.33
2022-12-15T16:59:15.490Z,52.45
2022-12-15T17:01:43.218Z,60.60
2022-12-15T17:04:11.760Z,60.70
2022-12-15T17:06:40.280Z,61.17
2022-12-15T17:09:15.464Z,60.22
2022-12-15T17:11:43.888Z,55.47
2022-12-15T17:14:13.273Z,56.38
2022-12-15T17:16:41.644Z,58.17
2022-12-15T17:19:09.992Z,61.08
2022-12-15T17:21:46.742Z,64.53
2022-12-15T17:24:20.026Z,61.83
2022-12-15T17:26:49.044Z,61.63
2022-12-15T17:29:20.967Z,56.08
2022-12-15T17:31:49.616Z,66.13
2022-12-15T17:34:30.392Z,63.15
2022-12-15T17:37:00.732Z,58.13
2022-12-15T17:39:32.035Z,56.67
2022-12-15T17:42:01.853Z,66.60
2022-12-15T17:44:35.111Z,61.58
2022-12-15T17:47:05.421Z,61.45
2022-12-15T17:49:37.224Z,59.58
2022-12-15T17:52:21.236Z,57.38
2022-12-15T17:54:52.180Z,61.63
2022-12-15T17:57:20.672Z,62.45
2022-12-15T17:59:49.363Z,68.45
2022-12-15T18:02:17.868Z,64.03
2022-12-15T18:04:46.749Z,66.68
2022-12-15T18:07:18.578Z,66.00
2022-12-15T18:09:47.673Z,62.95
2022-12-15T18:12:23.349Z,62.78
2022-12-15T18:14:51.996Z,56.28
2022-12-15T18:17:20.904Z,59.10
2022-12-15T18:19:49.768Z,63.92
2022-12-15T18:22:23.174Z,76.57
2022-12-15T18:24:54.347Z,73.80
2022-12-15T18:27:26.607Z,65.72
2022-12-15T18:29:55.560Z,76.13
2022-12-15T18:32:27.688Z,77.15
2022-12-15T18:34:56.493Z,71.47
2022-12-15T18:37:25.698Z,61.03
2022-12-15T18:39:56.237Z,77.00
2022-12-15T18:42:30.904Z,68.82
2022-12-15T18:45:00.341Z,58.60
2022-12-15T18:47:28.708Z,58.45
2022-12-15T18:49:57.269Z,75.47
2022-12-15T18:52:31.454Z,97.93
2022-12-15T18:55:01.480Z,89.20
2022-12-15T18:57:33.655Z,67.80
2022-12-15T19:00:08.635Z,73.38
2022-12-15T19:02:37.210Z,62.15
2022-12-15T19:05:06.585Z,57.20
2022-12-15T19:07:36.677Z,50.00
2022-12-15T19:10:05.851Z,55.92
2022-12-15T19:12:35.884Z,64.07
2022-12-15T19:15:04.338Z,60.90
2022-12-15T19:17:50.200Z,57.33
2022-12-15T19:20:38.266Z,68.93
2022-12-15T19:23:08.230Z,69.47
2022-12-15T19:25:37.286Z,71.35
2022-12-15T19:28:14.957Z,61.38
2022-12-15T19:30:43.618Z,63.58
2022-12-15T19:33:12.877Z,62.70
2022-12-15T19:35:44.731Z,62.17
2022-12-15T19:38:24.753Z,75.75
2022-12-15T19:40:54.836Z,70.65
2022-12-15T19:43:25.917Z,66.65
2022-12-15T19:45:54.872Z,63.63
2022-12-15T19:48:24.379Z,58.25
2022-12-15T19:50:55.829Z,57.83
2022-12-15T19:53:28.158Z,66.78
2022-12-15T19:55:59.992Z,60.28
2022-12-15T19:58:32.592Z,61.33
2022-12-15T20:01:05.591Z,53.05
2022-12-15T20:03:35.221Z,73.63
2022-12-15T20:06:05.492Z,66.13
2022-12-15T20:08:37.786Z,58.20
2022-12-15T20:11:10.778Z,58.53
2022-12-15T20:13:40.486Z,64.70
2022-12-15T20:16:10.564Z,59.03
2022-12-15T20:18:40.535Z,108.40
2022-12-15T20:21:11.913Z,77.18
2022-12-15T20:23:49.677Z,58.75
2022-12-15T20:26:18.909Z,57.58
2022-12-15T20:28:49.304Z,51.95
2022-12-15T20:31:21.213Z,69.95
2022-12-15T20:33:50.484Z,56.03
2022-12-15T20:36:22.009Z,57.63
2022-12-15T20:38:50.413Z,62.30
2022-12-15T20:41:20.991Z,61.97
2022-12-15T20:43:51.836Z,57.92
2022-12-15T20:46:24.370Z,54.13
2022-12-15T20:48:55.731Z,54.05
2022-12-15T20:51:26.967Z,57.00
2022-12-15T20:53:58.370Z,56.30
2022-12-15T20:56:27.756Z,56.63
2022-12-15T20:58:59.195Z,45.75
2022-12-15T21:01:31.867Z,52.03
2022-12-15T21:04:02.795Z,48.73
2022-12-15T21:06:32.264Z,49.17
2022-12-15T21:09:00.590Z,47.90
2022-12-15T21:11:33.703Z,53.03
2022-12-15T21:14:04.859Z,45.80
2022-12-15T21:16:34.335Z,44.17
2022-12-15T21:19:19.634Z,45.47
2022-12-15T21:21:53.013Z,45.38
2022-12-15T21:24:27.207Z,50.00
2022-12-15T21:26:55.818Z,45.88
2022-12-15T21:29:28.521Z,47.40
2022-12-15T21:31:57.424Z,51.58
2022-12-15T21:34:25.863Z,48.47
2022-12-15T21:36:55.588Z,55.40
2022-12-15T21:39:29.703Z,55.42
2022-12-15T21:42:01.991Z,56.03
2022-12-15T21:44:31.642Z,47.78
2022-12-15T21:47:00.034Z,52.70
2022-12-15T21:49:27.361Z,41.90
2022-12-15T21:51:59.494Z,44.23
2022-12-15T21:54:31.779Z,41.60
2022-12-15T21:57:00.910Z,43.07
2022-12-15T21:59:33.684Z,43.80
2022-12-15T22:02:02.903Z,40.90
2022-12-15T22:04:34.905Z,36.20
2022-12-15T22:07:03.729Z,36.93
2022-12-15T22:09:32.039Z,51.78
2022-12-15T22:12:01.306Z,45.10
2022-12-15T22:14:34.715Z,46.73
2022-12-15T22:17:13.726Z,45.20
2022-12-15T22:19:42.122Z,42.28
2022-12-15T22:22:10.863Z,39.13
2022-12-15T22:24:39.392Z,43.30
2022-12-15T22:27:17.053Z,42.78
2022-12-15T22:29:47.192Z,46.25
2022-12-15T22:32:17.195Z,45.55
2022-12-15T22:34:45.620Z,44.25
2022-12-15T22:37:14.057Z,42.70
2022-12-15T22:39:42.728Z,40.30
2022-12-15T22:42:16.374Z,47.05
2022-12-15T22:44:46.318Z,52.75
2022-12-15T22:47:14.983Z,39.17
2022-12-15T22:49:43.446Z,45.88
2022-12-15T22:52:18.376Z,38.92
2022-12-15T22:54:47.787Z,46.60
2022-12-15T22:57:23.327Z,40.58
2022-12-15T23:00:00.787Z,41.17
2022-12-15T23:02:33.522Z,39.53
2022-12-15T23:05:02.895Z,42.63
2022-12-15T23:07:31.415Z,47.83
2022-12-15T23:10:13.681Z,42.75
2022-12-15T23:12:42.159Z,45.10
2022-12-15T23:15:30.062Z,48.38
2022-12-15T23:17:58.528Z,41.92
2022-12-15T23:20:27.114Z,55.90
2022-12-15T23:22:55.531Z,44.53
2022-12-15T23:25:24.181Z,47.83
2022-12-15T23:27:52.638Z,43.47
2022-12-15T23:30:22.570Z,45.92
2022-12-15T23:32:51.251Z,51.83
2022-12-15T23:35:23.896Z,47.30
2022-12-15T23:37:52.241Z,48.47
2022-12-15T23:40:22.245Z,57.17
2022-12-15T23:42:51.631Z,46.40
2022-12-15T23:45:22.121Z,50.45
2022-12-15T23:47:50.499Z,54.78
2022-12-15T23:50:19.669Z,41.55
2022-12-15T23:52:51.717Z,52.47
2022-12-15T23:55:20.539Z,48.72
2022-12-15T23:57:48.840Z,45.80
